Time;durP1;ratioP1;P1;durP2;ratioP2;P2;SDS_P1;SDS_P2;PMS_P1;PMS_P2;Temp;Humidity;BMP_temperature;BMP_pressure;BME280_temperature;BME280_humidity;BME280_pressure;Samples;Min_cycle;Max_cycle;Signal;HPM_P1;HPM_P2
2023/01/05 00:00:10;;;;;;;2.65;1.42;;;;;;;;;;7388886;19;20444;-75
2023/01/05 00:02:35;;;;;;;1.40;1.30;;;;;;;;;;7388408;19;20005;-74
2023/01/05 00:05:00;;;;;;;1.40;1.30;;;;;;;;;;7390395;19;20006;-75
2023/01/05 00:07:26;;;;;;;2.20;1.30;;;;;;;;;;7390226;19;19991;-76
2023/01/05 00:09:51;;;;;;;1.08;1.00;;;;;;;;;;7390036;19;19991;-75
2023/01/05 00:23:12;;;;;;;2.35;1.02;;;;;;;;;;7389202;19;20340;-76
2023/01/05 00:25:39;;;;;;;1.73;1.13;;;;;;;;;;7391234;19;20002;-75
2023/01/05 00:28:05;;;;;;;1.98;0.98;;;;;;;;;;7389489;19;20452;-75
2023/01/05 00:30:38;;;;;;;1.30;1.10;;;;;;;;;;7389356;19;20023;-75
2023/01/05 00:33:06;;;;;;;0.90;0.90;;;;;;;;;;7389905;19;19998;-76
2023/01/05 00:35:31;;;;;;;2.15;1.20;;;;;;;;;;7391488;19;19995;-75
2023/01/05 00:37:57;;;;;;;1.25;1.02;;;;;;;;;;7391263;19;19997;-75
2023/01/05 00:40:22;;;;;;;4.22;1.13;;;;;;;;;;7390860;19;20067;-76
2023/01/05 00:42:47;;;;;;;1.52;1.30;;;;;;;;;;7389052;19;20020;-75
2023/01/05 00:45:15;;;;;;;2.63;1.20;;;;;;;;;;7390820;19;19994;-76
2023/01/05 00:47:41;;;;;;;1.08;1.00;;;;;;;;;;7390960;19;20510;-77
2023/01/05 00:50:09;;;;;;;1.33;1.02;;;;;;;;;;7388616;19;19999;-77
2023/01/05 00:52:34;;;;;;;1.23;1.10;;;;;;;;;;7389266;19;20006;-75
2023/01/05 00:55:00;;;;;;;1.00;1.00;;;;;;;;;;7390547;19;19987;-76
2023/01/05 00:57:25;;;;;;;1.80;1.17;;;;;;;;;;7390558;19;20020;-75
2023/01/05 00:59:50;;;;;;;2.35;1.42;;;;;;;;;;7389740;19;20449;-76
2023/01/05 01:02:16;;;;;;;1.33;1.23;;;;;;;;;;7389935;19;19991;-77
2023/01/05 01:04:41;;;;;;;1.13;1.02;;;;;;;;;;7388823;19;20005;-75
2023/01/05 01:07:07;;;;;;;1.23;1.17;;;;;;;;;;7390311;19;20032;-75
2023/01/05 01:09:33;;;;;;;2.10;1.48;;;;;;;;;;7391645;19;20408;-75
2023/01/05 01:11:58;;;;;;;2.13;1.40;;;;;;;;;;7396144;19;19994;-75
2023/01/05 01:14:24;;;;;;;2.05;1.30;;;;;;;;;;7395816;19;20491;-76
2023/01/05 01:16:49;;;;;;;1.45;1.35;;;;;;;;;;7397342;19;20480;-75
2023/01/05 01:19:20;;;;;;;1.23;1.10;;;;;;;;;;7396593;19;20070;-77
2023/01/05 01:21:46;;;;;;;;;;;;;;;;;;7397955;19;20002;-76
2023/01/05 01:24:26;;;;;;;1.20;1.10;;;;;;;;;;7396763;19;19915;-76
2023/01/05 01:26:52;;;;;;;1.27;1.00;;;;;;;;;;7397099;19;20252;-76
2023/01/05 01:29:18;;;;;;;1.60;0.95;;;;;;;;;;7395015;19;19995;-76
2023/01/05 01:31:45;;;;;;;1.00;1.00;;;;;;;;;;7396911;19;20399;-75
2023/01/05 01:34:10;;;;;;;2.38;0.70;;;;;;;;;;7393969;19;20006;-75
2023/01/05 01:36:36;;;;;;;0.77;0.77;;;;;;;;;;7396556;19;19995;-74
2023/01/05 01:39:01;;;;;;;0.80;0.80;;;;;;;;;;7394995;19;20001;-73
2023/01/05 01:41:27;;;;;;;1.23;1.00;;;;;;;;;;7394796;19;20373;-74
2023/01/05 01:43:55;;;;;;;1.85;0.90;;;;;;;;;;7392683;19;20022;-74
2023/01/05 01:46:22;;;;;;;0.73;0.70;;;;;;;;;;7395179;19;20002;-74
2023/01/05 01:48:56;;;;;;;2.95;0.88;;;;;;;;;;7392588;19;20070;-74
2023/01/05 01:51:24;;;;;;;2.78;0.90;;;;;;;;;;7400397;19;20006;-73
2023/01/05 01:53:54;;;;;;;2.45;0.88;;;;;;;;;;7394324;19;19990;-74
2023/01/05 01:56:23;;;;;;;3.33;0.98;;;;;;;;;;7395969;19;20002;-73
2023/01/05 01:58:50;;;;;;;2.15;0.82;;;;;;;;;;7394324;19;20015;-74
2023/01/05 02:01:15;;;;;;;4.65;1.10;;;;;;;;;;7394133;19;20456;-74
2023/01/05 02:03:41;;;;;;;6.13;0.90;;;;;;;;;;7393218;19;20005;-73
2023/01/05 02:06:07;;;;;;;2.45;1.00;;;;;;;;;;7395110;19;19995;-74
2023/01/05 02:08:33;;;;;;;6.68;1.15;;;;;;;;;;7395129;19;20006;-74
2023/01/05 02:11:17;;;;;;;4.72;1.10;;;;;;;;;;7395366;19;19999;-74
2023/01/05 02:14:05;;;;;;;5.95;1.13;;;;;;;;;;7394502;19;20016;-74
2023/01/05 02:16:49;;;;;;;4.35;0.80;;;;;;;;;;7394417;19;20010;-73
2023/01/05 02:19:58;;;;;;;4.65;1.25;;;;;;;;;;7392542;19;20015;-73
2023/01/05 02:22:41;;;;;;;3.33;1.35;;;;;;;;;;7391856;19;20018;-73
2023/01/05 02:25:19;;;;;;;4.32;1.10;;;;;;;;;;7397562;19;20505;-75
2023/01/05 02:28:02;;;;;;;4.38;1.25;;;;;;;;;;7398302;19;20058;-74
2023/01/05 02:30:59;;;;;;;3.95;0.90;;;;;;;;;;7396951;19;19999;-74
2023/01/05 02:33:37;;;;;;;7.28;1.85;;;;;;;;;;7397860;19;20009;-72
2023/01/05 02:36:13;;;;;;;5.30;1.05;;;;;;;;;;7394410;19;20023;-74
2023/01/05 02:38:53;;;;;;;4.07;0.93;;;;;;;;;;7393741;19;19998;-74
2023/01/05 02:41:28;;;;;;;8.63;1.33;;;;;;;;;;7392613;19;19999;-74
2023/01/05 02:43:55;;;;;;;2.08;0.82;;;;;;;;;;7391422;19;20070;-74
2023/01/05 02:46:21;;;;;;;9.52;1.27;;;;;;;;;;7392393;19;19998;-74
2023/01/05 02:48:49;;;;;;;6.95;1.52;;;;;;;;;;7393187;19;20003;-73
2023/01/05 02:51:20;;;;;;;4.78;1.10;;;;;;;;;;7393819;19;20006;-75
2023/01/05 02:54:08;;;;;;;4.65;1.42;;;;;;;;;;7392413;19;20027;-74
2023/01/05 02:56:45;;;;;;;7.57;1.45;;;;;;;;;;7391671;19;20420;-74
2023/01/05 02:59:13;;;;;;;6.85;1.30;;;;;;;;;;7392806;19;20007;-74
2023/01/05 03:01:44;;;;;;;9.48;1.63;;;;;;;;;;7393347;19;20364;-74
2023/01/05 03:04:38;;;;;;;4.00;1.00;;;;;;;;;;7393679;19;20201;-74
2023/01/05 03:07:08;;;;;;;8.38;1.48;;;;;;;;;;7392649;19;19995;-75
2023/01/05 03:09:37;;;;;;;7.75;1.35;;;;;;;;;;7392000;19;19999;-74
2023/01/05 03:14:56;;;;;;;10.02;1.40;;;;;;;;;;7392133;19;20023;-74
2023/01/05 03:17:43;;;;;;;8.57;1.58;;;;;;;;;;7392824;19;19998;-75
2023/01/05 03:20:12;;;;;;;10.15;2.28;;;;;;;;;;7391904;19;19998;-75
2023/01/05 03:36:56;;;;;;;7.55;1.90;;;;;;;;;;7393267;19;20314;-74
2023/01/05 03:39:25;;;;;;;7.85;2.15;;;;;;;;;;7391809;19;20014;-74
2023/01/05 03:41:51;;;;;;;9.30;1.88;;;;;;;;;;7391555;19;20005;-74
2023/01/05 03:44:17;;;;;;;12.73;2.22;;;;;;;;;;7393472;19;19994;-74
2023/01/05 03:46:42;;;;;;;11.43;1.90;;;;;;;;;;7392737;19;20448;-74
2023/01/05 03:49:08;;;;;;;10.40;1.90;;;;;;;;;;7391641;19;20313;-74
2023/01/05 03:51:33;;;;;;;5.88;1.38;;;;;;;;;;7391813;19;20003;-75
2023/01/05 03:53:59;;;;;;;6.97;1.42;;;;;;;;;;7390594;19;19995;-75
2023/01/05 03:56:24;;;;;;;6.22;1.23;;;;;;;;;;7392291;19;20019;-74
2023/01/05 03:58:49;;;;;;;8.48;2.03;;;;;;;;;;7393090;19;19998;-74
2023/01/05 04:01:15;;;;;;;10.15;2.38;;;;;;;;;;7390694;19;19995;-75
2023/01/05 04:03:40;;;;;;;15.55;2.03;;;;;;;;;;7389652;19;20012;-73
2023/01/05 04:06:05;;;;;;;14.77;2.20;;;;;;;;;;7392039;19;19991;-74
2023/01/05 04:08:31;;;;;;;8.60;1.70;;;;;;;;;;7391764;19;20046;-75
2023/01/05 04:10:56;;;;;;;12.13;1.90;;;;;;;;;;7396234;19;20066;-75
2023/01/05 04:13:22;;;;;;;11.93;2.10;;;;;;;;;;7399489;19;19994;-75
2023/01/05 04:15:47;;;;;;;12.40;2.17;;;;;;;;;;7402101;19;20015;-75
2023/01/05 04:18:13;;;;;;;11.45;2.13;;;;;;;;;;7401612;19;19995;-74
2023/01/05 04:20:38;;;;;;;10.10;1.70;;;;;;;;;;7389714;19;19986;-75
2023/01/05 04:23:03;;;;;;;10.35;1.85;;;;;;;;;;7389102;19;20013;-75
2023/01/05 04:25:29;;;;;;;5.57;1.83;;;;;;;;;;7391028;19;20578;-74
2023/01/05 04:27:54;;;;;;;10.35;1.65;;;;;;;;;;7391390;19;19994;-74
2023/01/05 04:30:20;;;;;;;9.57;2.25;;;;;;;;;;7389038;19;20066;-74
2023/01/05 04:32:45;;;;;;;11.55;2.20;;;;;;;;;;7390499;19;20025;-75
2023/01/05 04:35:11;;;;;;;17.35;2.00;;;;;;;;;;7391800;19;19995;-75
2023/01/05 04:37:36;;;;;;;10.63;1.98;;;;;;;;;;7390627;19;19991;-73
2023/01/05 04:40:02;;;;;;;8.45;1.85;;;;;;;;;;7388430;19;20429;-74
2023/01/05 04:42:27;;;;;;;9.07;2.25;;;;;;;;;;7390606;19;20028;-74
2023/01/05 04:44:52;;;;;;;8.13;1.88;;;;;;;;;;7396771;19;20050;-75
2023/01/05 04:47:18;;;;;;;12.02;1.88;;;;;;;;;;7398782;19;20062;-75
2023/01/05 04:49:43;;;;;;;11.27;2.30;;;;;;;;;;7396174;19;19987;-74
2023/01/05 04:52:09;;;;;;;13.07;2.50;;;;;;;;;;7398051;19;19995;-74
2023/01/05 04:54:34;;;;;;;11.90;1.98;;;;;;;;;;7394744;19;20084;-75
2023/01/05 04:57:00;;;;;;;12.00;2.00;;;;;;;;;;7397774;19;19994;-74
2023/01/05 04:59:25;;;;;;;10.65;2.05;;;;;;;;;;7396207;19;19999;-75
2023/01/05 05:01:50;;;;;;;8.18;2.25;;;;;;;;;;7396290;19;20023;-75
2023/01/05 05:04:16;;;;;;;8.00;2.08;;;;;;;;;;7393893;19;20021;-74
2023/01/05 05:06:41;;;;;;;12.38;2.42;;;;;;;;;;7397544;19;20002;-75
2023/01/05 05:09:06;;;;;;;8.65;2.10;;;;;;;;;;7396384;19;20003;-74
2023/01/05 05:11:31;;;;;;;8.82;1.48;;;;;;;;;;7400923;19;19986;-76
2023/01/05 05:13:57;;;;;;;11.75;1.95;;;;;;;;;;7394130;19;20005;-75
2023/01/05 05:16:22;;;;;;;10.63;1.85;;;;;;;;;;7397279;19;20041;-74
2023/01/05 05:18:47;;;;;;;15.50;2.42;;;;;;;;;;7396087;19;19999;-76
2023/01/05 05:21:13;;;;;;;15.93;2.42;;;;;;;;;;7400381;19;19991;-74
2023/01/05 05:23:38;;;;;;;11.90;2.75;;;;;;;;;;7392743;19;19999;-75
2023/01/05 05:26:04;;;;;;;7.03;1.90;;;;;;;;;;7397176;19;20002;-74
2023/01/05 05:28:29;;;;;;;12.57;2.67;;;;;;;;;;7397405;19;20010;-75
2023/01/05 05:30:55;;;;;;;11.80;2.65;;;;;;;;;;7396755;19;20452;-75
2023/01/05 05:33:21;;;;;;;10.07;2.55;;;;;;;;;;7394858;19;20082;-77
2023/01/05 05:35:46;;;;;;;12.73;1.85;;;;;;;;;;7396598;19;20005;-75
2023/01/05 05:38:12;;;;;;;11.10;1.95;;;;;;;;;;7394933;19;19994;-75
2023/01/05 05:40:37;;;;;;;7.75;1.75;;;;;;;;;;7396693;19;20054;-75
2023/01/05 05:43:02;;;;;;;11.40;2.28;;;;;;;;;;7394300;19;20441;-74
2023/01/05 05:45:28;;;;;;;7.72;1.67;;;;;;;;;;7396284;19;20442;-75
2023/01/05 05:47:53;;;;;;;13.43;1.88;;;;;;;;;;7396224;19;19987;-75
2023/01/05 05:50:18;;;;;;;7.53;2.28;;;;;;;;;;7397959;19;20030;-75
2023/01/05 05:52:44;;;;;;;10.30;1.83;;;;;;;;;;7394814;19;20007;-73
2023/01/05 05:55:09;;;;;;;9.60;2.15;;;;;;;;;;7393194;19;19995;-75
2023/01/05 05:57:35;;;;;;;9.82;1.65;;;;;;;;;;7396151;19;20005;-75
2023/01/05 06:00:00;;;;;;;8.38;1.88;;;;;;;;;;7394126;19;19991;-75
2023/01/05 06:02:25;;;;;;;13.77;2.30;;;;;;;;;;7395045;19;20487;-74
2023/01/05 06:04:50;;;;;;;12.10;2.00;;;;;;;;;;7394601;19;20003;-74
2023/01/05 06:07:16;;;;;;;10.52;2.20;;;;;;;;;;7395747;19;20014;-74
2023/01/05 06:09:41;;;;;;;48.40;17.15;;;;;;;;;;7394092;19;20003;-75
2023/01/05 06:12:06;;;;;;;17.73;6.30;;;;;;;;;;7395665;19;20062;-75
2023/01/05 06:14:32;;;;;;;24.77;8.00;;;;;;;;;;7394456;19;19998;-75
2023/01/05 06:16:57;;;;;;;13.65;3.20;;;;;;;;;;7395401;19;20019;-75
2023/01/05 06:19:22;;;;;;;15.60;2.88;;;;;;;;;;7393811;19;19998;-75
2023/01/05 06:21:48;;;;;;;9.57;2.45;;;;;;;;;;7394979;19;20002;-75
2023/01/05 06:24:14;;;;;;;12.90;2.25;;;;;;;;;;7391641;19;19991;-74
2023/01/05 06:26:39;;;;;;;11.30;2.55;;;;;;;;;;7395025;19;20018;-75
2023/01/05 06:29:04;;;;;;;7.00;1.95;;;;;;;;;;7393982;19;20010;-75
2023/01/05 06:31:29;;;;;;;9.05;2.00;;;;;;;;;;7394566;19;20002;-75
2023/01/05 06:33:55;;;;;;;28.13;11.02;;;;;;;;;;7393585;19;20006;-75
2023/01/05 06:36:20;;;;;;;11.77;2.70;;;;;;;;;;7394585;19;20365;-74
2023/01/05 06:38:46;;;;;;;12.32;2.30;;;;;;;;;;7393877;19;20023;-75
2023/01/05 06:41:11;;;;;;;7.90;1.92;;;;;;;;;;7394614;19;20003;-75
2023/01/05 06:43:36;;;;;;;10.68;1.95;;;;;;;;;;7390214;19;20006;-75
2023/01/05 06:46:02;;;;;;;10.57;1.85;;;;;;;;;;7394354;19;19999;-75
2023/01/05 06:48:27;;;;;;;4.50;1.40;;;;;;;;;;7394251;19;20040;-74
2023/01/05 06:50:52;;;;;;;8.88;1.95;;;;;;;;;;7394157;19;20006;-74
2023/01/05 06:53:18;;;;;;;11.57;2.00;;;;;;;;;;7393127;19;19990;-75
2023/01/05 06:55:44;;;;;;;8.07;1.88;;;;;;;;;;7394088;19;20002;-76
2023/01/05 06:58:09;;;;;;;4.95;1.73;;;;;;;;;;7394790;19;20353;-74
2023/01/05 07:00:35;;;;;;;6.38;1.38;;;;;;;;;;7394138;19;20098;-75
2023/01/05 07:03:00;;;;;;;7.32;1.80;;;;;;;;;;7391879;19;20067;-74
2023/01/05 07:05:26;;;;;;;8.93;1.77;;;;;;;;;;7393205;19;20364;-76
2023/01/05 07:07:51;;;;;;;6.55;1.50;;;;;;;;;;7395126;19;20697;-73
2023/01/05 07:10:16;;;;;;;4.95;1.55;;;;;;;;;;7391768;19;19999;-74
2023/01/05 07:12:42;;;;;;;6.85;1.60;;;;;;;;;;7394280;19;19998;-74
2023/01/05 07:15:08;;;;;;;9.73;1.77;;;;;;;;;;7395361;19;19993;-74
2023/01/05 07:17:33;;;;;;;11.40;3.55;;;;;;;;;;7392670;19;20464;-75
2023/01/05 07:19:58;;;;;;;8.63;2.72;;;;;;;;;;7391312;19;20102;-75
2023/01/05 07:22:24;;;;;;;8.82;2.03;;;;;;;;;;7392440;19;20019;-74
2023/01/05 07:24:49;;;;;;;11.73;1.65;;;;;;;;;;7395548;19;20054;-74
2023/01/05 07:27:15;;;;;;;6.55;1.42;;;;;;;;;;7395058;19;19998;-75
2023/01/05 07:29:40;;;;;;;11.13;1.63;;;;;;;;;;7394963;19;19995;-75
2023/01/05 07:32:06;;;;;;;12.60;2.13;;;;;;;;;;7389943;19;20013;-74
2023/01/05 07:34:31;;;;;;;7.45;1.30;;;;;;;;;;7387446;19;20448;-74
2023/01/05 07:36:57;;;;;;;6.32;1.63;;;;;;;;;;7369009;19;20445;-76
2023/01/05 07:39:22;;;;;;;8.65;1.50;;;;;;;;;;7389624;19;20454;-76
2023/01/05 07:41:47;;;;;;;7.35;1.58;;;;;;;;;;7391589;19;20030;-75
2023/01/05 07:44:12;;;;;;;7.40;1.75;;;;;;;;;;7387672;19;20023;-74
2023/01/05 07:46:41;;;;;;;4.85;1.10;;;;;;;;;;7390835;19;20039;-75
2023/01/05 07:49:06;;;;;;;9.10;1.90;;;;;;;;;;7391843;19;20452;-75
2023/01/05 07:51:31;;;;;;;5.60;1.52;;;;;;;;;;7388429;19;20011;-74
2023/01/05 07:53:57;;;;;;;7.80;1.70;;;;;;;;;;7386600;19;20016;-74
2023/01/05 07:56:22;;;;;;;11.95;1.85;;;;;;;;;;7390600;19;20030;-74
2023/01/05 07:58:47;;;;;;;4.90;1.50;;;;;;;;;;7388409;19;20424;-70
2023/01/05 08:01:14;;;;;;;7.47;1.70;;;;;;;;;;7386930;19;20044;-69
2023/01/05 08:03:40;;;;;;;6.82;1.52;;;;;;;;;;7382052;19;20002;-69
2023/01/05 08:06:11;;;;;;;10.23;1.67;;;;;;;;;;7385760;19;20015;-69
2023/01/05 08:08:36;;;;;;;8.18;1.80;;;;;;;;;;7384916;19;20107;-70
2023/01/05 08:11:06;;;;;;;7.10;1.27;;;;;;;;;;7386498;19;20126;-70
2023/01/05 08:16:19;;;;;;;10.00;2.05;;;;;;;;;;7387461;19;20027;-68
2023/01/05 08:18:45;;;;;;;12.00;2.40;;;;;;;;;;7385430;19;20007;-69
2023/01/05 08:21:10;;;;;;;11.27;2.00;;;;;;;;;;7388193;19;20017;-74
2023/01/05 08:23:37;;;;;;;16.63;2.58;;;;;;;;;;7399279;19;20018;-77
2023/01/05 08:26:09;;;;;;;14.65;2.97;;;;;;;;;;7400871;19;20370;-76
2023/01/05 08:28:36;;;;;;;11.45;2.10;;;;;;;;;;7403867;19;20022;-77
2023/01/05 08:31:05;;;;;;;8.00;2.30;;;;;;;;;;7409529;19;20373;-77
2023/01/05 08:33:31;;;;;;;9.48;2.20;;;;;;;;;;7407455;19;20098;-76
2023/01/05 08:35:56;;;;;;;8.73;1.75;;;;;;;;;;7402710;19;20018;-76
2023/01/05 08:38:22;;;;;;;9.18;2.00;;;;;;;;;;7398319;19;20019;-76
2023/01/05 08:40:47;;;;;;;9.07;1.98;;;;;;;;;;7409151;19;19999;-75
2023/01/05 08:43:12;;;;;;;9.55;2.35;;;;;;;;;;7409672;19;20002;-75
2023/01/05 08:45:38;;;;;;;9.93;2.10;;;;;;;;;;7419379;19;20005;-75
2023/01/05 08:48:03;;;;;;;14.40;2.50;;;;;;;;;;7418777;19;20014;-77
2023/01/05 08:50:30;;;;;;;10.25;2.83;;;;;;;;;;7412909;19;20002;-75
2023/01/05 08:52:56;;;;;;;13.05;2.63;;;;;;;;;;7399398;19;20008;-76
2023/01/05 08:55:21;;;;;;;10.20;2.00;;;;;;;;;;7398314;19;20007;-78
2023/01/05 08:57:47;;;;;;;11.40;2.08;;;;;;;;;;7392920;19;20006;-77
2023/01/05 09:00:13;;;;;;;11.13;2.58;;;;;;;;;;7396833;19;20481;-76
2023/01/05 09:02:38;;;;;;;10.80;1.83;;;;;;;;;;7389039;19;20039;-77
2023/01/05 09:05:04;;;;;;;10.10;2.10;;;;;;;;;;7388430;19;20024;-76
2023/01/05 09:07:29;;;;;;;13.85;2.08;;;;;;;;;;7388962;19;20019;-77
2023/01/05 09:09:54;;;;;;;9.75;2.00;;;;;;;;;;7388366;19;20016;-77
2023/01/05 09:12:20;;;;;;;10.00;2.05;;;;;;;;;;7390392;19;20015;-77
2023/01/05 09:14:45;;;;;;;5.60;1.85;;;;;;;;;;7381349;19;20497;-77
2023/01/05 09:17:10;;;;;;;9.95;2.17;;;;;;;;;;7386590;19;19998;-74
2023/01/05 09:19:36;;;;;;;7.60;1.60;;;;;;;;;;7381348;19;20014;-73
2023/01/05 09:22:01;;;;;;;7.82;1.70;;;;;;;;;;7384847;19;20023;-72
2023/01/05 09:24:27;;;;;;;5.22;1.48;;;;;;;;;;7383434;19;20026;-77
2023/01/05 09:26:52;;;;;;;11.65;2.20;;;;;;;;;;7381652;19;20094;-79
2023/01/05 09:29:17;;;;;;;11.10;2.25;;;;;;;;;;7384214;19;20488;-74
2023/01/05 09:31:43;;;;;;;7.00;1.60;;;;;;;;;;7385239;19;20021;-73
2023/01/05 09:34:09;;;;;;;8.38;2.08;;;;;;;;;;7386707;19;20070;-75
2023/01/05 09:36:37;;;;;;;13.15;2.53;;;;;;;;;;7393523;19;20037;-76
2023/01/05 09:39:04;;;;;;;8.25;1.90;;;;;;;;;;7392786;19;20007;-75
2023/01/05 09:41:47;;;;;;;9.55;2.28;;;;;;;;;;7393963;19;20010;-74
2023/01/05 09:44:36;;;;;;;9.73;2.67;;;;;;;;;;7389184;19;20011;-76
2023/01/05 09:47:13;;;;;;;10.82;2.08;;;;;;;;;;7391674;19;20465;-77
2023/01/05 09:49:39;;;;;;;7.97;1.70;;;;;;;;;;7392853;19;20407;-79
2023/01/05 09:52:09;;;;;;;6.65;2.08;;;;;;;;;;7393381;19;20092;-76
2023/01/05 09:54:36;;;;;;;8.80;1.98;;;;;;;;;;7392977;19;20009;-76
2023/01/05 09:57:03;;;;;;;6.57;1.77;;;;;;;;;;7393241;19;20468;-75
2023/01/05 09:59:54;;;;;;;10.48;2.05;;;;;;;;;;7391135;19;20085;-73
2023/01/05 10:02:33;;;;;;;7.55;1.88;;;;;;;;;;7391439;19;19994;-74
2023/01/05 10:05:01;;;;;;;9.32;2.00;;;;;;;;;;7390311;19;20475;-74
2023/01/05 10:07:51;;;;;;;7.85;2.05;;;;;;;;;;7392431;19;20023;-74
2023/01/05 10:10:44;;;;;;;7.90;1.90;;;;;;;;;;7391160;19;20015;-74
2023/01/05 10:13:23;;;;;;;9.90;2.00;;;;;;;;;;7392942;19;20453;-74
2023/01/05 10:15:52;;;;;;;9.52;2.45;;;;;;;;;;7392579;19;20471;-74
2023/01/05 10:18:23;;;;;;;7.65;1.83;;;;;;;;;;7392329;19;20014;-76
2023/01/05 10:21:00;;;;;;;6.67;1.90;;;;;;;;;;7389496;19;20058;-78
2023/01/05 10:23:49;;;;;;;9.23;2.13;;;;;;;;;;7391292;19;20002;-74
2023/01/05 10:26:35;;;;;;;11.20;2.00;;;;;;;;;;7390198;19;20100;-74
2023/01/05 10:29:14;;;;;;;10.85;2.08;;;;;;;;;;7396782;19;20014;-80
2023/01/05 10:31:59;;;;;;;10.40;1.70;;;;;;;;;;7393109;19;20014;-77
2023/01/05 10:34:50;;;;;;;10.38;2.20;;;;;;;;;;7389152;19;20302;-78
2023/01/05 10:37:40;;;;;;;10.70;2.10;;;;;;;;;;7391998;19;20006;-82
2023/01/05 10:40:27;;;;;;;18.60;2.73;;;;;;;;;;7381744;19;20016;-79
2023/01/05 10:43:25;;;;;;;15.32;3.58;;;;;;;;;;7389215;19;19999;-86
2023/01/05 10:45:51;;;;;;;7.97;2.25;;;;;;;;;;7390671;19;20006;-80
2023/01/05 10:48:22;;;;;;;10.27;1.92;;;;;;;;;;7391525;19;20440;-71
2023/01/05 10:50:48;;;;;;;13.43;2.67;;;;;;;;;;7384026;19;20005;-69
2023/01/05 10:53:17;;;;;;;15.43;2.70;;;;;;;;;;7390441;19;20009;-71
2023/01/05 10:56:02;;;;;;;11.75;2.20;;;;;;;;;;7391115;19;19990;-72
2023/01/05 10:58:31;;;;;;;11.68;2.20;;;;;;;;;;7382627;19;20002;-84
2023/01/05 11:01:03;;;;;;;14.73;2.65;;;;;;;;;;7386635;19;20014;-75
2023/01/05 11:03:35;;;;;;;11.82;3.00;;;;;;;;;;7387854;19;20027;-65
2023/01/05 11:06:01;;;;;;;11.35;2.50;;;;;;;;;;7389688;19;20099;-68
2023/01/05 11:08:28;;;;;;;11.68;2.53;;;;;;;;;;7390189;19;20001;-75
2023/01/05 11:11:06;;;;;;;12.98;2.55;;;;;;;;;;7384724;19;19991;-66
2023/01/05 11:13:32;;;;;;;13.10;2.35;;;;;;;;;;7383968;19;19994;-69
2023/01/05 11:16:11;;;;;;;11.18;2.30;;;;;;;;;;7388543;19;20007;-70
2023/01/05 11:19:05;;;;;;;17.05;4.28;;;;;;;;;;7386910;19;20142;-69
2023/01/05 11:21:38;;;;;;;11.20;2.50;;;;;;;;;;7382992;19;20076;-69
2023/01/05 11:24:24;;;;;;;10.93;2.55;;;;;;;;;;7386339;19;20177;-70
2023/01/05 11:26:51;;;;;;;13.80;3.08;;;;;;;;;;7386823;19;20075;-69
2023/01/05 11:29:17;;;;;;;12.93;2.35;;;;;;;;;;7389112;19;20003;-69
2023/01/05 11:32:12;;;;;;;11.52;2.22;;;;;;;;;;7390348;19;20080;-69
2023/01/05 11:34:44;;;;;;;14.88;2.75;;;;;;;;;;7387624;19;20365;-69
2023/01/05 11:37:29;;;;;;;11.32;2.60;;;;;;;;;;7385668;19;20360;-69
2023/01/05 11:39:58;;;;;;;14.63;2.60;;;;;;;;;;7387186;19;19998;-69
2023/01/05 11:42:23;;;;;;;9.48;2.00;;;;;;;;;;7385084;19;20445;-69
2023/01/05 11:44:54;;;;;;;11.57;2.22;;;;;;;;;;7387465;19;20005;-69
2023/01/05 11:47:52;;;;;;;14.65;2.72;;;;;;;;;;7389059;19;20019;-69
2023/01/05 11:50:24;;;;;;;11.88;2.28;;;;;;;;;;7388327;19;20011;-70
2023/01/05 11:52:52;;;;;;;17.55;2.47;;;;;;;;;;7385337;19;20011;-69
2023/01/05 11:55:24;;;;;;;13.32;2.53;;;;;;;;;;7390858;19;20326;-69
2023/01/05 11:57:53;;;;;;;13.77;2.40;;;;;;;;;;7388460;19;20484;-69
2023/01/05 12:00:27;;;;;;;11.75;2.30;;;;;;;;;;7387630;19;20006;-70
2023/01/05 12:03:38;;;;;;;11.70;1.95;;;;;;;;;;7384791;19;20425;-69
2023/01/05 12:06:23;;;;;;;13.27;2.53;;;;;;;;;;7387925;19;20003;-69
2023/01/05 12:09:10;;;;;;;11.57;2.25;;;;;;;;;;7382134;19;20003;-69
2023/01/05 12:11:46;;;;;;;13.10;2.50;;;;;;;;;;7388322;19;20684;-69
2023/01/05 12:14:26;;;;;;;9.95;2.25;;;;;;;;;;7386929;19;19995;-69
2023/01/05 12:16:54;;;;;;;13.23;2.75;;;;;;;;;;7389336;19;19999;-69
2023/01/05 12:20:11;;;;;;;16.98;2.90;;;;;;;;;;7388896;19;20005;-69
2023/01/05 12:23:02;;;;;;;9.75;2.20;;;;;;;;;;7381611;19;19998;-70
2023/01/05 12:25:27;;;;;;;;;;;;;;;;;;7389531;19;20465;-69
2023/01/05 12:28:38;;;;;;;10.40;2.33;;;;;;;;;;7389301;19;20281;-70
2023/01/05 12:31:41;;;;;;;13.40;2.20;;;;;;;;;;7389186;19;20453;-69
2023/01/05 12:34:36;;;;;;;13.60;2.10;;;;;;;;;;7387092;19;20010;-70
2023/01/05 12:37:04;;;;;;;12.95;2.25;;;;;;;;;;7383393;19;20003;-69
2023/01/05 12:40:11;;;;;;;10.77;1.73;;;;;;;;;;7382889;19;20389;-69
2023/01/05 12:42:55;;;;;;;9.95;2.10;;;;;;;;;;7376849;19;20000;-69
2023/01/05 12:45:50;;;;;;;10.02;2.40;;;;;;;;;;7383540;19;20014;-69
2023/01/05 12:48:20;;;;;;;14.57;1.95;;;;;;;;;;7382683;19;20096;-70
2023/01/05 12:50:51;;;;;;;12.35;2.30;;;;;;;;;;7381942;19;20006;-69
2023/01/05 12:53:41;;;;;;;14.60;2.55;;;;;;;;;;7385697;19;19995;-69
2023/01/05 12:56:46;;;;;;;12.05;2.42;;;;;;;;;;7386262;19;19990;-69
2023/01/05 12:59:33;;;;;;;18.08;2.33;;;;;;;;;;7384254;19;20452;-69
2023/01/05 13:02:05;;;;;;;12.05;2.63;;;;;;;;;;7382603;19;20042;-69
2023/01/05 13:04:37;;;;;;;11.05;2.03;;;;;;;;;;7381470;19;20457;-69
2023/01/05 13:07:08;;;;;;;12.38;2.58;;;;;;;;;;7389131;19;20002;-69
2023/01/05 13:09:35;;;;;;;11.82;2.00;;;;;;;;;;7384603;19;20012;-69
2023/01/05 13:12:06;;;;;;;16.67;2.70;;;;;;;;;;7390756;19;20036;-69
2023/01/05 13:14:34;;;;;;;10.02;2.08;;;;;;;;;;7389544;19;19998;-69
2023/01/05 13:17:06;;;;;;;9.85;2.47;;;;;;;;;;7392289;19;20014;-69
2023/01/05 13:19:46;;;;;;;6.97;1.80;;;;;;;;;;7392465;19;20074;-69
2023/01/05 13:22:33;;;;;;;16.73;2.65;;;;;;;;;;7394810;19;20023;-70
2023/01/05 13:25:03;;;;;;;9.18;2.17;;;;;;;;;;7395395;19;20030;-69
2023/01/05 13:27:30;;;;;;;6.78;1.60;;;;;;;;;;7392352;19;19998;-70
2023/01/05 13:29:59;;;;;;;15.38;2.25;;;;;;;;;;7388270;19;20006;-69
2023/01/05 13:32:36;;;;;;;11.32;2.35;;;;;;;;;;7393118;19;20015;-69
2023/01/05 13:35:26;;;;;;;10.23;2.30;;;;;;;;;;7395178;19;20039;-70
2023/01/05 13:38:19;;;;;;;11.00;2.33;;;;;;;;;;7392522;19;20002;-69
2023/01/05 13:41:16;;;;;;;14.20;2.85;;;;;;;;;;7390265;19;20040;-69
2023/01/05 13:44:04;;;;;;;9.38;2.05;;;;;;;;;;7390525;19;20006;-68
2023/01/05 13:46:47;;;;;;;7.25;1.92;;;;;;;;;;7394183;19;20003;-69
2023/01/05 13:49:18;;;;;;;11.13;2.08;;;;;;;;;;7392987;19;20113;-69
2023/01/05 13:51:57;;;;;;;;;;;;;;;;;;7395005;19;20002;-69
2023/01/05 13:54:31;;;;;;;8.88;2.10;;;;;;;;;;7392038;19;19917;-68
2023/01/05 13:56:56;;;;;;;13.90;2.28;;;;;;;;;;7392187;19;19998;-70
2023/01/05 13:59:28;;;;;;;9.18;1.95;;;;;;;;;;7392681;19;20491;-68
2023/01/05 14:01:57;;;;;;;9.30;1.92;;;;;;;;;;7394331;19;19999;-69
2023/01/05 14:04:27;;;;;;;9.07;2.63;;;;;;;;;;7389422;19;20002;-70
2023/01/05 14:07:10;;;;;;;14.60;2.90;;;;;;;;;;7394396;19;20111;-70
2023/01/05 14:09:52;;;;;;;12.88;2.50;;;;;;;;;;7392112;19;20023;-69
2023/01/05 14:12:18;;;;;;;17.08;2.50;;;;;;;;;;7389202;19;20476;-67
2023/01/05 14:14:57;;;;;;;10.40;1.85;;;;;;;;;;7384975;19;20005;-66
2023/01/05 14:17:54;;;;;;;13.63;2.47;;;;;;;;;;7380091;19;20005;-71
2023/01/05 14:20:50;;;;;;;9.68;2.17;;;;;;;;;;7388803;19;20030;-76
2023/01/05 14:23:22;;;;;;;7.70;2.25;;;;;;;;;;7390419;19;20018;-74
2023/01/05 14:26:00;;;;;;;12.48;2.33;;;;;;;;;;7384215;19;20283;-77
2023/01/05 14:28:29;;;;;;;9.02;1.98;;;;;;;;;;7416255;19;20006;-86
2023/01/05 14:31:26;;;;;;;12.40;2.10;;;;;;;;;;7420163;19;19998;-71
2023/01/05 14:34:06;;;;;;;14.38;2.65;;;;;;;;;;7381266;19;20170;-70
2023/01/05 14:37:16;;;;;;;11.68;2.30;;;;;;;;;;7385512;19;20420;-78
2023/01/05 14:39:43;;;;;;;10.80;2.22;;;;;;;;;;7383311;19;20023;-77
2023/01/05 14:42:19;;;;;;;11.98;2.35;;;;;;;;;;7389523;19;20027;-77
2023/01/05 14:44:58;;;;;;;15.63;2.78;;;;;;;;;;7391537;19;20005;-79
2023/01/05 14:47:46;;;;;;;15.18;2.45;;;;;;;;;;7384035;19;20086;-79
2023/01/05 14:50:37;;;;;;;15.82;2.45;;;;;;;;;;7389186;19;20008;-84
2023/01/05 14:53:10;;;;;;;11.10;2.30;;;;;;;;;;7388039;19;19994;-69
2023/01/05 14:55:57;;;;;;;17.02;2.85;;;;;;;;;;7391685;19;19998;-70
2023/01/05 14:58:35;;;;;;;14.27;2.55;;;;;;;;;;7386472;19;20358;-72
2023/01/05 15:01:15;;;;;;;12.00;2.38;;;;;;;;;;7386132;19;20442;-73
2023/01/05 15:03:56;;;;;;;11.97;2.77;;;;;;;;;;7389927;19;20007;-73
2023/01/05 15:06:41;;;;;;;8.98;2.17;;;;;;;;;;7389330;19;20232;-72
2023/01/05 15:09:37;;;;;;;20.77;2.33;;;;;;;;;;7384975;19;20014;-73
2023/01/05 15:12:24;;;;;;;17.35;2.65;;;;;;;;;;7385149;19;20014;-74
2023/01/05 15:15:23;;;;;;;15.07;2.40;;;;;;;;;;7383067;19;20028;-77
2023/01/05 15:18:16;;;;;;;12.18;2.63;;;;;;;;;;7385288;19;20460;-77
2023/01/05 15:21:23;;;;;;;15.77;2.67;;;;;;;;;;7385350;19;20018;-77
2023/01/05 15:24:26;;;;;;;11.38;2.50;;;;;;;;;;7382628;19;20019;-78
2023/01/05 15:27:39;;;;;;;9.75;2.13;;;;;;;;;;7382944;19;20594;-75
2023/01/05 15:30:37;;;;;;;12.63;2.83;;;;;;;;;;7383425;19;20373;-76
2023/01/05 15:33:27;;;;;;;15.88;2.50;;;;;;;;;;7383859;19;20010;-75
2023/01/05 15:35:59;;;;;;;12.20;2.90;;;;;;;;;;7385296;19;20520;-76
2023/01/05 15:38:27;;;;;;;19.60;4.13;;;;;;;;;;7386628;19;19998;-77